Terminal Aerodrome Forecast
Issued by NWS

Home | Current Version | Previous Version | Text Only | Print | Product List | Glossary On
Versions: 1 2 3 4 5 6 7 8 9 10 11 12 13 14 15 16 17 18 19 20 21
195
FTUS43 KMQT 070531
TAFCMX
TAF
KCMX 070531Z 0706/0806 11007KT 2SM -SN OVC015
     FM070800 18007KT 2SM -SN OVC015
     FM072000 24007KT 1SM -SN OVC004
     FM072300 31004KT 1SM -SN OVC004
     FM080200 36008KT 1SM -SN OVC004=

USA.gov is the U.S. government's official web portal to all federal, state and local government web resources and services.